LY87 weather

Kovin Airport
South Banat, Serbia

Public forecast

Using degrees Celsius for public forecast. Weather courtesy of forecast.io.

Closest aviation weather report (METAR) to Kovin Airport

Closest report is Vršac International Airport, 26.8 nm (49.7 km) NNE. Retrieved 2019/12/13 10:30 UTC (0 seconds ago):

LYVR 131030Z 13021G31KT CAVOK 10/03 Q0997 NOSIG

Closest aviation forecast (TAF) to Kovin Airport

Closest forecast is Vršac International Airport, 26.8 nm (49.7 km) NNE. Retrieved 2019/12/13 06:00 UTC (4 hours ago):

TAF LYVR 130500Z 1306/1406 13018KT 9999 BKN033 TX11/1312Z TN06/1405Z TEMPO 1306/1310 14020G35KT BECMG 1313/1315 14020G40KT TEMPO 1318/1406 14025G55KT